Time;durP1;ratioP1;P1;durP2;ratioP2;P2;SDS_P1;SDS_P2;PMS_P1;PMS_P2;Temp;Humidity;BMP_temperature;BMP_pressure;BME280_temperature;BME280_humidity;BME280_pressure;Samples;Min_cycle;Max_cycle;Signal;HPM_P1;HPM_P2
2024/04/17 00:01:36;;;;;;;24.00;8.50;;;7.70;99.90;;;;;;7289767;19;20195;-83
2024/04/17 00:04:01;;;;;;;23.17;8.40;;;7.60;99.90;;;;;;7289369;19;20192;-83
2024/04/17 00:06:27;;;;;;;27.23;8.43;;;7.60;99.90;;;;;;7289221;19;20205;-82
2024/04/17 00:08:53;;;;;;;31.13;9.10;;;7.50;99.90;;;;;;7310644;19;20191;-83
2024/04/17 00:11:20;;;;;;;29.17;8.43;;;7.50;99.90;;;;;;7289482;19;20194;-83
2024/04/17 00:13:46;;;;;;;33.87;9.50;;;7.50;99.90;;;;;;7286667;19;21040;-83
2024/04/17 00:16:12;;;;;;;26.10;8.87;;;7.40;99.90;;;;;;7289609;19;20197;-83
2024/04/17 00:18:38;;;;;;;23.03;9.10;;;7.30;99.90;;;;;;7288478;19;20197;-83
2024/04/17 00:21:04;;;;;;;28.23;9.10;;;7.20;99.90;;;;;;7288635;19;20185;-83
2024/04/17 00:23:30;;;;;;;29.43;8.90;;;7.20;99.90;;;;;;7288315;19;20191;-83
2024/04/17 00:25:56;;;;;;;24.97;8.93;;;7.20;99.90;;;;;;7297552;19;20218;-82
2024/04/17 00:28:24;;;;;;;25.47;8.87;;;7.10;99.90;;;;;;7309469;19;20221;-83
2024/04/17 00:30:49;;;;;;;36.23;9.47;;;7.10;99.90;;;;;;7285513;19;20710;-83
2024/04/17 00:33:15;;;;;;;28.00;9.30;;;7.10;99.90;;;;;;7287497;19;20188;-83
2024/04/17 00:35:41;;;;;;;25.63;10.20;;;7.00;99.90;;;;;;7287516;19;20189;-83
2024/04/17 00:38:07;;;;;;;31.33;9.57;;;7.00;99.90;;;;;;7286809;19;20727;-83
2024/04/17 00:40:35;;;;;;;35.37;10.43;;;6.90;99.90;;;;;;7288912;19;20295;-83
2024/04/17 00:43:02;;;;;;;32.87;11.03;;;6.90;99.90;;;;;;7288183;19;20200;-83
2024/04/17 00:45:35;;;;;;;29.50;10.73;;;6.90;99.90;;;;;;7287022;19;20193;-83
2024/04/17 00:48:01;;;;;;;32.63;11.23;;;7.00;99.90;;;;;;7286321;19;20190;-82
2024/04/17 00:50:28;;;;;;;32.20;10.80;;;7.10;99.90;;;;;;7287008;19;20302;-82
2024/04/17 00:52:55;;;;;;;28.67;10.97;;;7.10;99.90;;;;;;7308894;19;20195;-83
2024/04/17 00:55:22;;;;;;;26.10;10.17;;;7.20;99.90;;;;;;7288405;19;20208;-83
2024/04/17 00:57:48;;;;;;;29.93;9.60;;;7.20;99.90;;;;;;7286004;19;20190;-83
2024/04/17 01:00:14;;;;;;;26.60;9.43;;;7.10;99.90;;;;;;7289585;19;20485;-83
2024/04/17 01:02:40;;;;;;;33.40;9.77;;;7.10;99.90;;;;;;7290596;19;20664;-83
2024/04/17 01:05:06;;;;;;;26.10;9.23;;;7.10;99.90;;;;;;7288702;19;20268;-84
2024/04/17 01:07:32;;;;;;;32.40;9.40;;;7.10;99.90;;;;;;7291157;19;20185;-84
2024/04/17 01:09:58;;;;;;;30.70;8.47;;;7.20;99.90;;;;;;7291408;19;20284;-83
2024/04/17 01:12:24;;;;;;;33.83;9.13;;;7.30;99.90;;;;;;7312025;19;20210;-83
2024/04/17 01:14:50;;;;;;;24.43;8.23;;;7.20;99.90;;;;;;7287088;19;20257;-83
2024/04/17 01:17:16;;;;;;;32.80;8.73;;;7.30;99.90;;;;;;7287875;19;20651;-82
2024/04/17 01:19:42;;;;;;;27.10;8.70;;;7.30;99.90;;;;;;7286300;19;20216;-83
2024/04/17 01:22:08;;;;;;;26.50;7.77;;;7.30;99.90;;;;;;7288304;19;20216;-84
2024/04/17 01:24:33;;;;;;;30.87;8.83;;;7.40;99.90;;;;;;7286754;19;20189;-84
2024/04/17 01:26:59;;;;;;;29.83;8.03;;;7.50;99.90;;;;;;7286225;19;20198;-84
2024/04/17 01:29:25;;;;;;;26.87;8.30;;;7.50;99.90;;;;;;7307156;19;20250;-81
2024/04/17 01:31:50;;;;;;;23.47;8.00;;;7.50;99.90;;;;;;7295891;19;20194;-83
2024/04/17 01:34:16;;;;;;;30.73;9.07;;;7.60;99.90;;;;;;7286927;19;20194;-84
2024/04/17 01:36:42;;;;;;;27.27;7.77;;;7.60;99.90;;;;;;7286243;19;20203;-83
2024/04/17 01:39:07;;;;;;;26.00;8.83;;;7.50;99.90;;;;;;7286193;19;20299;-83
2024/04/17 01:41:33;;;;;;;28.90;8.97;;;7.50;99.90;;;;;;7286961;19;20288;-83
2024/04/17 01:43:59;;;;;;;40.90;8.90;;;7.50;99.90;;;;;;7287158;19;20537;-83
2024/04/17 01:46:25;;;;;;;27.17;8.93;;;7.60;99.90;;;;;;7304077;19;20284;-82
2024/04/17 01:48:50;;;;;;;24.27;7.33;;;7.60;99.90;;;;;;7300704;19;20178;-83
2024/04/17 01:51:16;;;;;;;23.73;7.43;;;7.60;99.90;;;;;;7286128;19;20202;-83
2024/04/17 01:53:42;;;;;;;22.13;7.77;;;7.70;99.90;;;;;;7286791;19;20200;-84
2024/04/17 01:56:08;;;;;;;25.70;6.80;;;7.70;99.90;;;;;;7287490;19;20189;-83
2024/04/17 01:58:34;;;;;;;22.57;6.63;;;7.90;99.90;;;;;;7285082;19;20493;-84
2024/04/17 02:01:04;;;;;;;28.97;6.77;;;7.90;99.90;;;;;;7285667;19;20552;-84
2024/04/17 02:03:31;;;;;;;31.00;6.60;;;7.90;99.90;;;;;;7286657;19;20202;-84
2024/04/17 02:05:56;;;;;;;21.00;6.10;;;7.90;99.90;;;;;;7288864;19;20195;-84
2024/04/17 02:08:22;;;;;;;20.80;6.07;;;8.00;99.90;;;;;;7309946;19;20592;-84
2024/04/17 02:10:48;;;;;;;19.47;5.80;;;8.10;99.90;;;;;;7287160;19;20208;-84
2024/04/17 02:13:13;;;;;;;22.80;5.80;;;8.10;99.90;;;;;;7285382;19;20191;-84
2024/04/17 02:15:39;;;;;;;20.20;5.40;;;8.10;99.90;;;;;;7285554;19;20197;-84
2024/04/17 02:18:05;;;;;;;17.83;5.20;;;8.20;99.90;;;;;;7285746;19;20206;-84
2024/04/17 02:20:31;;;;;;;23.17;5.77;;;8.20;99.90;;;;;;7287767;19;20195;-84
2024/04/17 02:22:57;;;;;;;20.03;4.20;;;8.20;99.90;;;;;;7286923;19;20211;-83
2024/04/17 02:25:22;;;;;;;13.83;4.07;;;8.20;99.90;;;;;;7307210;19;20297;-84
2024/04/17 02:27:48;;;;;;;17.33;4.63;;;8.20;99.90;;;;;;7287243;19;20227;-83
2024/04/17 02:30:14;;;;;;;15.90;4.47;;;8.20;99.90;;;;;;7284624;19;20663;-83
2024/04/17 02:32:39;;;;;;;15.80;4.27;;;8.10;99.90;;;;;;7283248;19;20212;-83
2024/04/17 02:35:05;;;;;;;14.80;4.20;;;8.00;99.90;;;;;;7286064;19;20198;-83
2024/04/17 02:37:31;;;;;;;16.87;4.10;;;7.90;99.90;;;;;;7284534;19;20179;-83
2024/04/17 02:39:57;;;;;;;15.53;3.90;;;7.60;99.90;;;;;;7285114;19;20205;-83
2024/04/17 02:42:23;;;;;;;17.53;3.90;;;7.60;99.90;;;;;;7308442;19;20253;-84
2024/04/17 02:44:48;;;;;;;18.87;4.37;;;7.70;99.90;;;;;;7284756;19;20194;-84
2024/04/17 02:47:14;;;;;;;17.93;4.30;;;7.80;99.90;;;;;;7285026;19;20194;-84
2024/04/17 02:49:40;;;;;;;19.30;3.90;;;8.10;99.90;;;;;;7284650;19;20196;-83
2024/04/17 02:52:05;;;;;;;13.60;3.80;;;8.10;99.90;;;;;;7284349;19;20191;-83
2024/04/17 02:54:31;;;;;;;14.27;3.53;;;8.10;99.90;;;;;;7283912;19;20200;-83
2024/04/17 02:56:57;;;;;;;9.87;3.10;;;8.10;99.90;;;;;;7285637;19;20667;-83
2024/04/17 02:59:23;;;;;;;11.10;2.73;;;8.20;99.90;;;;;;7305339;19;20198;-83
2024/04/17 03:01:48;;;;;;;13.63;2.67;;;8.40;99.90;;;;;;7284692;19;20722;-83
2024/04/17 03:04:14;;;;;;;15.90;2.80;;;8.30;99.90;;;;;;7283947;19;20219;-83
2024/04/17 03:06:40;;;;;;;14.23;2.83;;;8.30;99.90;;;;;;7284271;19;20199;-83
2024/04/17 03:09:05;;;;;;;11.30;2.60;;;8.40;99.90;;;;;;7284393;19;20199;-83
2024/04/17 03:11:31;;;;;;;8.60;2.60;;;8.40;99.90;;;;;;7284625;19;20183;-83
2024/04/17 03:13:57;;;;;;;12.00;2.90;;;8.40;99.90;;;;;;7283073;19;20186;-83
2024/04/17 03:16:23;;;;;;;11.70;3.10;;;8.20;99.90;;;;;;7305500;19;20199;-84
2024/04/17 03:18:48;;;;;;;12.50;3.10;;;8.30;99.90;;;;;;7282987;19;20216;-83
2024/04/17 03:21:14;;;;;;;11.40;2.77;;;8.30;99.90;;;;;;7283717;19;20192;-84
2024/04/17 03:23:40;;;;;;;14.40;2.90;;;8.40;99.90;;;;;;7281691;19;20227;-84
2024/04/17 03:26:06;;;;;;;11.67;3.30;;;8.40;99.90;;;;;;7283647;19;20229;-84
2024/04/17 03:28:31;;;;;;;11.67;2.50;;;8.40;99.90;;;;;;7283357;19;20199;-84
2024/04/17 03:31:00;;;;;;;10.10;2.60;;;8.50;99.90;;;;;;7282787;19;20192;-83
2024/04/17 03:33:26;;;;;;;10.53;2.53;;;8.60;99.90;;;;;;7290902;19;20188;-83
2024/04/17 03:35:54;;;;;;;9.03;2.57;;;8.70;99.90;;;;;;7305502;19;20176;-84
2024/04/17 03:38:20;;;;;;;14.60;2.83;;;8.70;99.90;;;;;;7282167;19;20196;-84
2024/04/17 03:40:46;;;;;;;9.90;2.60;;;8.70;99.90;;;;;;7283792;19;20181;-84
2024/04/17 03:43:12;;;;;;;11.37;2.43;;;8.80;99.90;;;;;;7283102;19;20291;-84
2024/04/17 03:45:37;;;;;;;11.87;2.60;;;8.80;99.90;;;;;;7284531;19;20185;-83
2024/04/17 03:48:03;;;;;;;9.63;2.70;;;8.90;99.90;;;;;;7282162;19;20272;-83
2024/04/17 03:50:29;;;;;;;11.87;3.50;;;8.90;99.90;;;;;;7289315;19;20191;-83
2024/04/17 03:52:55;;;;;;;10.87;3.30;;;9.00;99.90;;;;;;7307999;19;20199;-81
2024/04/17 03:55:20;;;;;;;10.47;2.80;;;9.00;99.90;;;;;;7298806;19;20191;-84
2024/04/17 03:57:46;;;;;;;10.00;2.80;;;9.10;99.90;;;;;;7288609;19;20237;-84
2024/04/17 04:00:13;;;;;;;9.23;2.70;;;9.10;99.90;;;;;;7286847;19;20184;-84
2024/04/17 04:02:38;;;;;;;15.33;3.03;;;9.10;99.90;;;;;;7289365;19;20207;-84
2024/04/17 04:05:04;;;;;;;12.23;3.10;;;9.10;99.90;;;;;;7290314;19;20200;-84
2024/04/17 04:07:30;;;;;;;10.03;3.10;;;9.00;99.90;;;;;;7289410;19;20806;-83
2024/04/17 04:09:56;;;;;;;12.10;3.03;;;8.90;99.90;;;;;;7298686;19;20300;-83
2024/04/17 04:12:21;;;;;;;13.53;3.10;;;8.90;99.90;;;;;;7308169;19;20202;-83
2024/04/17 04:14:47;;;;;;;10.80;3.10;;;8.90;99.90;;;;;;7291240;19;20196;-84
2024/04/17 04:17:13;;;;;;;10.83;2.67;;;8.90;99.90;;;;;;7291000;19;20204;-84
2024/04/17 04:19:39;;;;;;;10.10;3.10;;;8.80;99.90;;;;;;7288190;19;20189;-84
2024/04/17 04:22:04;;;;;;;13.57;2.93;;;9.00;99.90;;;;;;7289838;19;20192;-84
2024/04/17 04:24:30;;;;;;;11.33;3.17;;;9.10;99.90;;;;;;7292049;19;20690;-84
2024/04/17 04:26:56;;;;;;;14.07;3.60;;;9.20;99.90;;;;;;7312829;19;20252;-81
2024/04/17 04:29:22;;;;;;;10.03;3.37;;;9.30;99.90;;;;;;7315946;19;20207;-80
2024/04/17 04:31:47;;;;;;;10.60;3.00;;;9.30;99.90;;;;;;7287866;19;20204;-80
2024/04/17 04:34:13;;;;;;;10.43;3.30;;;9.30;99.90;;;;;;7289036;19;20203;-80
2024/04/17 04:36:39;;;;;;;9.33;3.17;;;9.30;99.90;;;;;;7288278;19;20207;-80
2024/04/17 04:39:05;;;;;;;13.03;3.20;;;9.30;99.90;;;;;;7286340;19;20188;-80
2024/04/17 04:41:30;;;;;;;12.33;3.27;;;9.20;99.90;;;;;;7287538;19;20185;-79
2024/04/17 04:43:56;;;;;;;10.23;2.87;;;9.20;99.90;;;;;;7297891;19;20199;-82
2024/04/17 04:46:22;;;;;;;11.50;3.40;;;9.10;99.90;;;;;;7309269;19;20188;-81
2024/04/17 04:48:48;;;;;;;11.30;3.10;;;9.10;99.90;;;;;;7283887;19;20794;-81
2024/04/17 04:51:14;;;;;;;11.80;3.67;;;9.10;99.90;;;;;;7286315;19;20212;-81
2024/04/17 04:53:40;;;;;;;12.00;3.63;;;9.00;99.90;;;;;;7287972;19;20202;-80
2024/04/17 04:56:06;;;;;;;11.83;3.53;;;9.00;99.90;;;;;;7286977;19;20293;-81
2024/04/17 04:58:31;;;;;;;14.63;3.60;;;9.00;99.90;;;;;;7288316;19;20289;-81
2024/04/17 05:00:57;;;;;;;11.43;3.80;;;9.00;99.90;;;;;;7285092;19;20184;-81
2024/04/17 05:03:23;;;;;;;11.60;3.83;;;9.00;99.90;;;;;;7309534;19;20194;-80
2024/04/17 05:05:50;;;;;;;10.23;3.90;;;9.10;99.90;;;;;;7285222;19;20189;-84
2024/04/17 05:08:15;;;;;;;13.53;4.23;;;9.20;99.90;;;;;;7286698;19;20202;-84
2024/04/17 05:10:41;;;;;;;13.47;3.90;;;9.20;99.90;;;;;;7286290;19;20196;-83
2024/04/17 05:13:07;;;;;;;12.77;3.63;;;9.20;99.90;;;;;;7287902;19;20196;-82
2024/04/17 05:15:33;;;;;;;15.80;4.13;;;9.10;99.90;;;;;;7279749;19;20228;-82
2024/04/17 05:17:59;;;;;;;9.77;3.50;;;9.10;99.90;;;;;;7286282;19;20295;-79
2024/04/17 05:20:26;;;;;;;12.53;3.70;;;9.10;99.90;;;;;;7307365;19;20539;-83
2024/04/17 05:22:52;;;;;;;14.17;3.70;;;9.00;99.90;;;;;;7285144;19;20612;-83
2024/04/17 05:25:19;;;;;;;13.03;3.77;;;9.10;99.90;;;;;;7285365;19;20191;-82
2024/04/17 05:27:45;;;;;;;15.43;3.80;;;9.00;99.90;;;;;;7285248;19;20743;-81
2024/04/17 05:30:12;;;;;;;14.63;4.30;;;9.10;99.90;;;;;;7282775;19;20200;-82
2024/04/17 05:32:38;;;;;;;18.37;4.20;;;9.10;99.90;;;;;;7286960;19;20545;-81
2024/04/17 05:35:05;;;;;;;15.73;4.00;;;9.20;99.90;;;;;;7284152;19;20207;-81
2024/04/17 05:37:33;;;;;;;13.27;3.80;;;9.30;99.90;;;;;;7285674;19;20191;-80
2024/04/17 05:39:59;;;;;;;15.63;4.37;;;9.60;99.90;;;;;;7286294;19;20192;-81
2024/04/17 05:42:26;;;;;;;13.00;4.00;;;10.60;99.90;;;;;;7305346;19;20547;-81
2024/04/17 05:44:52;;;;;;;9.67;3.00;;;12.10;99.90;;;;;;7284222;19;20611;-82
2024/04/17 05:47:18;;;;;;;10.53;3.20;;;13.00;99.90;;;;;;7284409;19;20636;-81
2024/04/17 05:49:43;;;;;;;13.80;3.53;;;13.70;99.90;;;;;;7282303;19;20207;-81
2024/04/17 05:52:10;;;;;;;11.77;3.03;;;14.50;99.90;;;;;;7283326;19;20258;-80
2024/04/17 05:54:38;;;;;;;9.00;2.83;;;14.80;99.90;;;;;;7283028;19;20263;-81
2024/04/17 05:57:04;;;;;;;10.50;2.80;;;15.50;99.90;;;;;;7282610;19;20584;-82
2024/04/17 05:59:30;;;;;;;7.63;2.50;;;15.40;99.90;;;;;;7282716;19;20206;-80
2024/04/17 06:01:59;;;;;;;8.43;2.67;;;15.80;99.90;;;;;;7290260;19;20716;-80
2024/04/17 06:04:25;;;;;;;10.40;2.70;;;15.60;99.90;;;;;;7304747;19;20193;-79
2024/04/17 06:06:50;;;;;;;9.03;2.87;;;15.10;99.90;;;;;;7284479;19;20235;-79
2024/04/17 06:09:16;;;;;;;11.07;2.83;;;14.40;99.90;;;;;;7284075;19;20242;-79
2024/04/17 06:11:42;;;;;;;14.43;3.10;;;13.90;99.90;;;;;;7280210;19;20199;-80
2024/04/17 06:14:08;;;;;;;14.13;2.87;;;14.10;99.90;;;;;;7283231;19;20191;-80
2024/04/17 06:16:34;;;;;;;12.33;2.83;;;15.10;99.90;;;;;;7282249;19;20197;-81
2024/04/17 06:18:59;;;;;;;10.60;2.73;;;15.50;99.90;;;;;;7282164;19;20212;-80
2024/04/17 06:21:27;;;;;;;9.57;2.77;;;15.40;99.90;;;;;;7301107;19;20185;-80
2024/04/17 06:23:53;;;;;;;13.03;2.93;;;14.80;99.90;;;;;;7304946;19;20196;-81
2024/04/17 06:26:19;;;;;;;10.70;3.00;;;14.30;99.90;;;;;;7283013;19;20707;-80
2024/04/17 06:28:45;;;;;;;15.20;2.80;;;13.70;99.90;;;;;;7282756;19;20193;-79
2024/04/17 06:31:10;;;;;;;10.70;2.50;;;13.80;99.90;;;;;;7283614;19;20190;-80
2024/04/17 06:33:36;;;;;;;10.40;2.30;;;14.90;99.90;;;;;;7282511;19;20547;-81
2024/04/17 06:36:02;;;;;;;16.67;2.40;;;15.50;99.90;;;;;;7283457;19;20265;-80
2024/04/17 06:38:28;;;;;;;11.83;2.37;;;15.50;99.90;;;;;;7282931;19;20273;-81
2024/04/17 06:40:55;;;;;;;14.47;2.60;;;15.50;99.90;;;;;;7304209;19;20213;-80
2024/04/17 06:43:23;;;;;;;11.90;2.37;;;15.40;99.90;;;;;;7285842;19;20187;-80
2024/04/17 06:45:48;;;;;;;11.90;2.70;;;15.10;99.90;;;;;;7280372;19;20186;-80
2024/04/17 06:48:15;;;;;;;16.20;2.70;;;14.70;99.90;;;;;;7284486;19;20181;-80
2024/04/17 06:50:40;;;;;;;15.03;2.60;;;14.60;99.90;;;;;;7283697;19;20192;-81
2024/04/17 06:53:07;;;;;;;14.53;2.57;;;14.00;99.90;;;;;;7283497;19;20189;-80
2024/04/17 06:55:32;;;;;;;13.83;2.27;;;14.30;99.90;;;;;;7284139;19;20180;-80
2024/04/17 06:57:58;;;;;;;19.00;2.90;;;14.90;99.90;;;;;;7283488;19;20195;-80
2024/04/17 07:00:34;;;;;;;15.60;2.50;;;14.80;99.90;;;;;;7303811;19;20185;-80
2024/04/17 07:03:00;;;;;;;14.40;3.13;;;14.60;99.90;;;;;;7282866;19;20195;-80
2024/04/17 07:05:28;;;;;;;17.63;2.53;;;14.60;99.90;;;;;;7292983;19;20180;-80
2024/04/17 07:07:54;;;;;;;17.97;2.37;;;14.70;99.90;;;;;;7305936;19;20196;-80
2024/04/17 07:10:20;;;;;;;14.33;2.50;;;14.20;99.90;;;;;;7282299;19;20183;-80
2024/04/17 07:12:46;;;;;;;14.07;3.10;;;14.10;99.90;;;;;;7281508;19;20306;-80
2024/04/17 07:15:12;;;;;;;15.87;2.60;;;14.10;99.90;;;;;;7283081;19;20196;-79
2024/04/17 07:17:38;;;;;;;16.47;2.50;;;14.30;99.90;;;;;;7281100;19;20197;-80
2024/04/17 07:20:04;;;;;;;17.17;3.20;;;15.00;99.90;;;;;;7282965;19;20307;-80
2024/04/17 07:22:29;;;;;;;16.33;2.70;;;16.20;99.90;;;;;;7284614;19;20202;-80
2024/04/17 07:24:55;;;;;;;19.80;2.80;;;17.30;99.90;;;;;;7310993;19;20190;-80
2024/04/17 07:27:24;;;;;;;14.77;2.47;;;17.60;99.90;;;;;;7311600;19;20197;-79
2024/04/17 07:29:58;;;;;;;11.43;2.20;;;17.90;99.90;;;;;;7286228;19;20724;-80
2024/04/17 07:32:24;;;;;;;13.70;2.30;;;18.50;99.90;;;;;;7288834;19;20192;-81
2024/04/17 07:34:51;;;;;;;18.33;2.47;;;19.50;99.90;;;;;;7289815;19;20186;-80
2024/04/17 07:37:18;;;;;;;12.43;2.13;;;20.70;99.90;;;;;;7289940;19;20221;-80
2024/04/17 07:39:44;;;;;;;17.97;3.10;;;20.90;99.90;;;;;;7287275;19;20189;-80
2024/04/17 07:42:10;;;;;;;12.30;2.27;;;21.20;99.90;;;;;;7289763;19;20696;-81
2024/04/17 07:44:36;;;;;;;13.07;2.57;;;22.30;99.90;;;;;;7289852;19;20183;-80
2024/04/17 07:47:01;;;;;;;9.97;1.93;;;21.40;99.90;;;;;;7289814;19;20188;-80
2024/04/17 07:49:27;;;;;;;16.20;2.80;;;21.40;99.90;;;;;;7292989;19;20190;-80
2024/04/17 07:51:53;;;;;;;14.37;2.37;;;21.50;99.90;;;;;;7312017;19;20206;-80
2024/04/17 07:54:19;;;;;;;13.17;1.97;;;21.90;99.90;;;;;;7289449;19;20264;-80
2024/04/17 07:56:44;;;;;;;12.03;2.40;;;22.40;99.90;;;;;;7289988;19;20187;-81
2024/04/17 07:59:10;;;;;;;15.37;2.33;;;21.90;99.90;;;;;;7287201;19;20201;-80
2024/04/17 08:01:36;;;;;;;13.17;2.40;;;22.00;99.90;;;;;;7289556;19;20680;-81
2024/04/17 08:04:02;;;;;;;12.60;2.17;;;20.80;99.90;;;;;;7288284;19;20206;-80
2024/04/17 08:06:27;;;;;;;10.73;1.93;;;20.80;99.90;;;;;;7294058;19;20198;-80
2024/04/17 08:08:53;;;;;;;12.53;2.40;;;21.10;99.90;;;;;;7310295;19;20195;-81
2024/04/17 08:11:19;;;;;;;13.27;2.20;;;21.60;99.00;;;;;;7287383;19;20196;-80
2024/04/17 08:13:45;;;;;;;13.60;2.10;;;21.50;99.90;;;;;;7288137;19;25311;-81
2024/04/17 08:16:11;;;;;;;17.50;2.37;;;21.50;99.80;;;;;;7288659;19;20197;-80
2024/04/17 08:18:37;;;;;;;19.37;2.83;;;21.40;99.90;;;;;;7287701;19;20198;-80
2024/04/17 08:21:04;;;;;;;11.07;2.03;;;20.10;99.90;;;;;;7287839;19;20574;-80
2024/04/17 08:23:29;;;;;;;10.60;1.93;;;19.60;99.90;;;;;;7288649;19;20184;-80
2024/04/17 08:25:55;;;;;;;12.97;2.67;;;19.30;99.90;;;;;;7308257;19;20694;-80
2024/04/17 08:28:21;;;;;;;14.17;2.17;;;20.70;99.90;;;;;;7287742;19;20711;-80
2024/04/17 08:30:47;;;;;;;14.67;2.53;;;22.30;99.90;;;;;;7288531;19;20178;-80
2024/04/17 08:33:12;;;;;;;16.90;2.33;;;22.00;99.90;;;;;;7289324;19;20197;-80
2024/04/17 08:35:39;;;;;;;11.57;2.27;;;20.70;99.90;;;;;;7281350;19;20192;-80
2024/04/17 08:38:05;;;;;;;16.30;2.23;;;19.70;99.90;;;;;;7286636;19;20193;-80
2024/04/17 08:40:31;;;;;;;12.57;2.10;;;18.50;99.90;;;;;;7288394;19;20216;-80
2024/04/17 08:43:03;;;;;;;15.27;2.30;;;17.80;99.90;;;;;;7285586;19;20200;-80
2024/04/17 08:45:35;;;;;;;12.67;2.33;;;16.50;99.90;;;;;;7288374;19;20191;-80
2024/04/17 08:48:02;;;;;;;12.87;2.07;;;16.50;99.90;;;;;;7287472;19;20209;-80
2024/04/17 08:50:30;;;;;;;13.57;2.13;;;17.00;99.90;;;;;;7287316;19;20263;-80
2024/04/17 08:53:00;;;;;;;14.77;2.43;;;17.10;99.90;;;;;;7295613;19;20180;-80
2024/04/17 08:55:28;;;;;;;13.60;2.90;;;16.80;99.90;;;;;;7299782;19;20185;-80
2024/04/17 08:57:54;;;;;;;9.43;1.87;;;18.50;99.90;;;;;;7308702;19;20646;-80
2024/04/17 09:00:24;;;;;;;11.97;1.87;;;20.40;99.90;;;;;;7286862;19;20262;-81
2024/04/17 09:02:57;;;;;;;11.93;2.13;;;21.40;99.90;;;;;;7286833;19;20180;-80
2024/04/17 09:05:25;;;;;;;12.90;2.17;;;21.50;99.80;;;;;;7288696;19;20188;-80
2024/04/17 09:07:52;;;;;;;11.70;2.27;;;22.20;98.90;;;;;;7289007;19;20256;-80
2024/04/17 09:10:19;;;;;;;15.17;2.00;;;21.90;99.50;;;;;;7284525;19;20209;-81
2024/04/17 09:12:45;;;;;;;12.27;1.97;;;21.00;97.20;;;;;;7287133;19;20192;-80
2024/04/17 09:15:15;;;;;;;12.63;2.10;;;20.30;98.20;;;;;;7286224;19;20177;-81
2024/04/17 09:17:41;;;;;;;10.63;1.80;;;19.00;99.90;;;;;;7286733;19;21511;-80
2024/04/17 09:20:08;;;;;;;11.20;1.80;;;18.10;99.90;;;;;;7287163;19;20192;-80
2024/04/17 09:22:35;;;;;;;15.37;2.30;;;17.60;99.90;;;;;;7286663;19;20288;-80
2024/04/17 09:25:13;;;;;;;12.33;2.00;;;16.30;99.90;;;;;;7286425;19;20201;-80
2024/04/17 09:27:39;;;;;;;12.93;2.23;;;18.20;99.90;;;;;;7288609;19;20181;-80
2024/04/17 09:30:05;;;;;;;13.83;2.40;;;19.20;99.90;;;;;;7285103;19;20206;-80
2024/04/17 09:32:32;;;;;;;14.97;2.00;;;18.50;99.90;;;;;;7284239;19;20188;-80
2024/04/17 09:34:59;;;;;;;10.03;1.60;;;16.10;99.90;;;;;;7286475;19;20196;-80
2024/04/17 09:37:25;;;;;;;13.13;1.80;;;15.70;99.90;;;;;;7306135;19;20195;-80
2024/04/17 09:40:01;;;;;;;15.03;1.87;;;15.30;99.90;;;;;;7285897;19;20188;-80
2024/04/17 09:42:29;;;;;;;10.00;1.90;;;15.20;99.90;;;;;;7273213;19;20197;-80
2024/04/17 09:44:59;;;;;;;10.80;1.87;;;15.80;99.90;;;;;;7307789;19;20208;-80
2024/04/17 09:47:28;;;;;;;10.87;1.77;;;17.60;99.90;;;;;;7285076;19;20243;-80
2024/04/17 09:49:56;;;;;;;8.37;1.70;;;20.70;99.90;;;;;;7286553;19;20260;-80
2024/04/17 09:52:22;;;;;;;9.20;1.63;;;22.50;99.10;;;;;;7284848;19;20190;-80
2024/04/17 09:54:50;;;;;;;10.87;1.53;;;25.20;92.50;;;;;;7286893;19;20221;-78
2024/04/17 09:57:16;;;;;;;6.47;1.30;;;25.00;89.10;;;;;;7282300;19;20207;-78
2024/04/17 09:59:43;;;;;;;7.43;1.23;;;23.70;83.20;;;;;;7287009;19;20187;-80
2024/04/17 10:02:15;;;;;;;9.70;1.67;;;21.30;88.30;;;;;;7285962;19;20185;-80
2024/04/17 10:04:42;;;;;;;9.17;1.70;;;19.80;91.20;;;;;;7287315;19;20676;-80
2024/04/17 10:07:10;;;;;;;7.63;1.40;;;18.20;95.20;;;;;;7286787;19;20183;-79
2024/04/17 10:09:39;;;;;;;8.90;1.30;;;16.40;99.90;;;;;;7283577;19;20194;-79
2024/04/17 10:12:10;;;;;;;11.77;1.60;;;15.10;99.90;;;;;;7282595;19;20229;-79
2024/04/17 10:14:37;;;;;;;3.93;0.80;;;13.90;99.90;;;;;;7285518;19;20221;-79
2024/04/17 10:17:06;;;;;;;8.33;1.53;;;12.60;99.90;;;;;;7285740;19;20954;-79
2024/04/17 10:19:33;;;;;;;5.67;0.77;;;12.20;99.90;;;;;;7286923;19;20583;-81
2024/04/17 10:21:59;;;;;;;1.93;0.67;;;11.60;99.90;;;;;;7283358;19;20601;-79
2024/04/17 10:24:24;;;;;;;3.70;0.90;;;11.40;99.90;;;;;;7307376;19;20240;-81
2024/04/17 10:26:57;;;;;;;4.70;1.20;;;10.60;99.90;;;;;;7285394;19;20271;-79
2024/04/17 10:29:24;;;;;;;1.90;0.90;;;9.80;99.90;;;;;;7282826;19;20185;-79
2024/04/17 10:32:14;;;;;;;4.37;1.30;;;9.00;99.90;;;;;;7283446;19;20196;-78
2024/04/17 10:34:47;;;;;;;2.60;0.90;;;8.70;99.90;;;;;;7181029;19;2005023;-77
2024/04/17 10:37:16;;;;;;;2.53;1.10;;;8.30;99.90;;;;;;7283039;19;20325;-79
2024/04/17 10:39:42;;;;;;;3.77;1.20;;;7.70;99.90;;;;;;7283557;19;20202;-79
2024/04/17 10:42:09;;;;;;;4.40;1.10;;;7.50;99.90;;;;;;7283674;19;20577;-79
2024/04/17 10:44:43;;;;;;;6.83;1.50;;;7.60;99.90;;;;;;7284531;19;20200;-80
2024/04/17 10:47:27;;;;;;;5.80;1.37;;;7.70;99.90;;;;;;7284466;19;20203;-78
2024/04/17 10:49:59;;;;;;;3.30;1.30;;;7.90;99.90;;;;;;7282065;19;20265;-78
2024/04/17 10:52:25;;;;;;;3.27;1.57;;;8.20;99.90;;;;;;7284161;19;20297;-78
2024/04/17 10:54:55;;;;;;;2.60;1.33;;;8.50;99.90;;;;;;7283645;19;20199;-78
2024/04/17 10:57:21;;;;;;;4.70;1.27;;;8.90;99.90;;;;;;7283702;19;20189;-78
2024/04/17 10:59:48;;;;;;;4.97;1.40;;;9.10;99.90;;;;;;7280141;19;20184;-78
2024/04/17 11:02:14;;;;;;;3.13;1.20;;;9.20;99.90;;;;;;7282647;19;20214;-78
2024/04/17 11:04:40;;;;;;;2.23;1.00;;;9.20;99.90;;;;;;7282033;19;20565;-78
2024/04/17 11:07:09;;;;;;;3.57;1.33;;;9.60;99.90;;;;;;7282472;19;20203;-78
2024/04/17 11:09:35;;;;;;;4.70;1.40;;;10.50;99.90;;;;;;7284270;19;20238;-79
2024/04/17 11:12:01;;;;;;;11.63;2.47;;;11.50;99.90;;;;;;7284105;19;20197;-80
2024/04/17 11:14:26;;;;;;;5.67;1.50;;;13.60;99.90;;;;;;7295908;19;20519;-80
2024/04/17 11:16:52;;;;;;;4.53;1.40;;;15.60;99.90;;;;;;7299072;19;20657;-81
2024/04/17 11:19:18;;;;;;;2.33;0.80;;;16.80;99.90;;;;;;7281730;19;20192;-81
2024/04/17 11:21:44;;;;;;;4.37;0.90;;;17.60;99.90;;;;;;7280806;19;20193;-81
2024/04/17 11:24:17;;;;;;;3.20;0.80;;;17.70;99.90;;;;;;7282703;19;20191;-81
2024/04/17 11:26:44;;;;;;;3.77;0.87;;;18.40;99.90;;;;;;7282044;19;20188;-81
2024/04/17 11:29:16;;;;;;;3.50;0.73;;;19.30;99.90;;;;;;7283894;19;20198;-81
2024/04/17 11:31:45;;;;;;;1.30;0.73;;;19.60;99.90;;;;;;7282303;19;20620;-80
2024/04/17 11:34:21;;;;;;;1.73;0.73;;;17.90;99.90;;;;;;7284420;19;20224;-80
2024/04/17 11:36:48;;;;;;;2.70;0.97;;;16.00;99.90;;;;;;7284211;19;20541;-80
2024/04/17 11:39:17;;;;;;;4.27;1.20;;;14.90;99.90;;;;;;7283782;19;20951;-81
2024/04/17 11:41:42;;;;;;;3.37;0.97;;;14.10;99.90;;;;;;7283296;19;20197;-80
2024/04/17 11:44:09;;;;;;;2.07;0.93;;;13.50;99.90;;;;;;7281413;19;20211;-80
2024/04/17 11:46:38;;;;;;;2.30;0.70;;;12.80;99.90;;;;;;7282325;19;20237;-80
2024/04/17 11:49:04;;;;;;;3.50;0.97;;;12.00;99.90;;;;;;7282913;19;20298;-80
2024/04/17 11:51:30;;;;;;;5.07;1.20;;;11.30;99.90;;;;;;7281376;19;20712;-80
2024/04/17 11:53:56;;;;;;;3.17;0.93;;;11.00;99.90;;;;;;7298887;19;20182;-79
2024/04/17 11:56:26;;;;;;;2.80;1.13;;;10.80;99.90;;;;;;7305347;19;20545;-80
2024/04/17 11:58:51;;;;;;;3.33;1.40;;;10.70;99.90;;;;;;7282526;19;20237;-80
2024/04/17 12:01:17;;;;;;;3.70;1.10;;;10.60;99.90;;;;;;7281916;19;20219;-80
2024/04/17 12:03:43;;;;;;;4.93;1.27;;;10.60;99.90;;;;;;7280115;19;20200;-81
2024/04/17 12:06:09;;;;;;;6.33;3.00;;;11.00;99.90;;;;;;7280223;19;20192;-81
2024/04/17 12:08:34;;;;;;;5.97;3.13;;;11.20;99.90;;;;;;7281654;19;20277;-80
2024/04/17 12:11:00;;;;;;;5.03;2.03;;;11.10;99.90;;;;;;7284980;19;20199;-80
2024/04/17 12:13:26;;;;;;;3.20;1.37;;;11.00;99.90;;;;;;7304346;19;20180;-80
2024/04/17 12:15:52;;;;;;;4.67;1.40;;;10.90;99.90;;;;;;7304774;19;20716;-80
2024/04/17 12:18:18;;;;;;;3.73;1.20;;;10.50;99.90;;;;;;7287144;19;20212;-80
2024/04/17 12:20:43;;;;;;;2.53;1.30;;;10.70;99.90;;;;;;7286884;19;20196;-80
2024/04/17 12:23:09;;;;;;;3.93;1.00;;;10.60;99.90;;;;;;7289526;19;20544;-81
2024/04/17 12:28:19;;;;;;;3.73;1.10;;;11.70;99.90;;;;;;7288908;19;20225;-81
2024/04/17 12:30:46;;;;;;;3.87;1.00;;;13.10;99.90;;;;;;7286988;19;20191;-80
2024/04/17 12:33:12;;;;;;;3.37;0.80;;;14.00;99.90;;;;;;7287115;19;20185;-81
2024/04/17 12:35:37;;;;;;;1.77;0.70;;;14.30;99.90;;;;;;7288042;19;20603;-81
2024/04/17 12:38:03;;;;;;;2.13;0.63;;;14.30;99.90;;;;;;7288578;19;20248;-80
2024/04/17 12:40:29;;;;;;;3.07;0.80;;;13.60;99.90;;;;;;7289502;19;20188;-81
2024/04/17 12:42:55;;;;;;;3.90;1.00;;;13.90;99.90;;;;;;7315073;19;20283;-81